Troy, TX

11:21 AM CDT on April 27, 2015 (GMT -0500)
Pandemonium Farms | | Change Station
CLOSE
Current Station
Personal Weather Station
Location: Moody, TX
Elevation: 837 ft
Nearby Weather Stations

Elev 837 ft 31.29 °N, 97.31 °W | Updated 34 seconds ago

Partly Cloudy
Partly Cloudy
73.4 °F
Feels Like 73 °F
N
0.0
Wind Variable Wind from ESE

Today
High -- | Low -- °F
--% Chance of Precip.
Yesterday
High -- | Low -- °F
Precip. -- in
6:48 AM 8:05 PM
Waxing Gibbous, 66% visible
Pressure 29.71 in
Visibility 10.0 miles
Clouds Mostly Cloudy 1800 ft
Heat Index 73 °F
Dew Point 68 °F
Humidity 84%
Rainfall 0.63 in
Snow Depth Not available.
UV 5 out of 12
Pollen 8.70 out of 12
Air Quality Not available.
Flu Activity Local Activity
METAR KTPL 271615Z AUTO 09010KT 10SM BKN018 22/16 A2971 RMK AO1

More Conditions Fewer Conditions

Pressure 29.71 in
Visibility 10.0 miles
Clouds Mostly Cloudy 1800 ft
Heat Index 73 °F
Dew Point 68 °F
Humidity 84%
Rainfall 0.63 in
Snow Depth Not available.
UV 5 out of 12
Pollen 8.70 out of 12
Air Quality Not available.
Flu Activity Local Activity
METAR KTPL 271615Z AUTO 09010KT 10SM BKN018 22/16 A2971 RMK AO1

More Conditions Fewer Conditions

Nowcast | as of 10:43 am CDT on April 27, 2015

Isolated to scattered showers and thunderstorms will continue to develop in a broken line from Bowie...to Mineral Wells and Granbury and move toward Interstate 35 and 35 west through 1 PM. A few stronger storms with small hail...heavy rainfall...and more frequent lightning are expected during this time. Any additional heavier rainfall may result in continued flooding issues across some areas. Keep an eye to the sky and when thunder roars...head indoors! Elsewhere...an isolated shower or thunderstorm is possible through 1 PM...with partly to mostly cloudy skies expected and temperatures warming into the upper 60s north of Interstate 20 to the lower 70s south of Interstate 20. Gusty east winds 10 to 20 mph across eastern half of the region...with lighter south-southeast winds across the far west. A few severe storms are possible later this afternoon...mainly east of Interstate 35 and along and south of interstates 20 and 30.

×

10-Day Weather Forecast

Almanac

Astronomy

Apr. 27, 2015 Rise Set
Actual Time
Civil Twilight
Nautical Twilight
Astronomical Twilight
Moon
Length of Visible Light
Length of Day
Tomorrow will be .
, % of the Moon is Illuminated

Today's Extremes

State Highs State Lows

Community

WunderPhotos

Upload Photos

1,817,334 photos uploaded!

WunderBlogs® & News

Nearby

Air Quality

  Air Quality AQ Index Pollutant
Not available.

Snow Depth

Station Depth Elevation

Earthquake Activity

City Distance Mag. Time & Date
Minimum magnitude displayed is 2.5.

Coastal Water Temperatures

Place Temperature

Stations

Nearby Weather Stations

Station Location Temp. Windchill Dew Point Humidity Wind Precip. Elev Updated Type